Argonne, Minnesota
Current Conditions -  °F | °C
As of 4:01 AM on Sunday 25 Jan 2015 (Local Time) from KLVN Reporting Station
Overcast Overcast  
Wind Chill: -8°   Ceiling: 1900
Heat Index: -2°   Visibility: 10mi
Dew Point: -4°   Wind: 14mph
Humidity: 86%   Direction: 30°NNE
Pressure: 29.79"   Gusts: NA
Location:  44.6349°N, 93.283°W
Report Text: KLVN 251001Z AUTO 03012KT 10SM OVC019 M02/M04 A2979 RMK AO2
Loading
Personal Weather Stations






























Interactive Weather Map New forecast layout! Learn more

10-Day Weather Forecast

Advertisements
Track Severe Weather on mobile